Time;durP1;ratioP1;P1;durP2;ratioP2;P2;SDS_P1;SDS_P2;PMS_P1;PMS_P2;Temp;Humidity;BMP_temperature;BMP_pressure;BME280_temperature;BME280_humidity;BME280_pressure;Samples;Min_cycle;Max_cycle;Signal;HPM_P1;HPM_P2
2022/05/11 00:02:06;;;;;;;7.83;7.20;;;17.20;99.90;;;;;;4884252;29;20551;-79
2022/05/11 00:04:33;;;;;;;7.53;6.93;;;17.30;99.90;;;;;;4884466;29;20475;-79
2022/05/11 00:07:00;;;;;;;7.33;6.73;;;17.20;99.90;;;;;;4884466;29;20926;-79
2022/05/11 00:09:28;;;;;;;7.70;7.10;;;17.20;99.90;;;;;;4884097;29;20482;-79
2022/05/11 00:11:54;;;;;;;8.17;7.57;;;17.20;99.90;;;;;;4884065;29;20468;-80
2022/05/11 00:14:21;;;;;;;10.70;8.30;;;17.30;99.90;;;;;;4884506;29;21168;-79
2022/05/11 00:16:48;;;;;;;7.47;6.83;;;17.30;99.90;;;;;;4884458;29;20571;-80
2022/05/11 00:19:16;;;;;;;8.43;7.63;;;17.30;99.90;;;;;;4883740;29;20466;-79
2022/05/11 00:21:43;;;;;;;7.93;7.23;;;17.40;99.90;;;;;;4883633;29;20469;-80
2022/05/11 00:24:10;;;;;;;8.87;8.13;;;17.40;99.90;;;;;;4884314;29;20491;-79
2022/05/11 00:26:38;;;;;;;7.57;6.87;;;17.30;99.90;;;;;;4884188;29;20470;-79
2022/05/11 00:29:05;;;;;;;8.63;7.97;;;17.30;99.90;;;;;;4883012;29;20469;-80
2022/05/11 00:31:32;;;;;;;7.40;6.70;;;17.30;99.90;;;;;;4883720;29;20460;-79
2022/05/11 00:33:59;;;;;;;7.50;6.80;;;17.40;99.90;;;;;;4884245;29;20457;-79
2022/05/11 00:36:26;;;;;;;7.30;6.80;;;17.30;99.90;;;;;;4884262;29;20454;-80
2022/05/11 00:38:52;;;;;;;7.10;6.50;;;17.30;99.90;;;;;;4884214;29;20465;-80
2022/05/11 00:41:19;;;;;;;8.60;7.30;;;17.30;99.90;;;;;;4884114;29;20558;-79
2022/05/11 00:43:55;;;;;;;7.43;6.87;;;17.20;99.90;;;;;;4883693;29;20477;-79
2022/05/11 00:46:27;;;;;;;8.07;7.27;;;17.30;99.90;;;;;;4884359;29;20545;-80
2022/05/11 00:51:47;;;;;;;7.40;6.80;;;17.10;99.90;;;;;;4883691;29;20931;-80
2022/05/11 00:54:16;;;;;;;8.00;7.30;;;17.10;99.90;;;;;;4883372;29;20481;-79
2022/05/11 00:56:49;;;;;;;7.33;6.83;;;17.10;99.90;;;;;;4883844;29;20546;-80
2022/05/11 00:59:22;;;;;;;6.70;6.30;;;17.10;99.90;;;;;;4883506;29;20471;-80
2022/05/11 01:01:50;;;;;;;7.70;7.00;;;17.10;99.90;;;;;;4883133;29;20473;-80
2022/05/11 01:04:20;;;;;;;8.10;7.50;;;17.10;99.90;;;;;;4883754;29;20484;-80
2022/05/11 01:06:47;;;;;;;7.30;6.80;;;17.10;99.90;;;;;;4883215;29;20463;-80
2022/05/11 01:09:14;;;;;;;8.07;6.67;;;17.00;99.90;;;;;;4883650;29;20465;-80
2022/05/11 01:11:46;;;;;;;7.97;7.27;;;17.00;99.90;;;;;;4883498;29;20838;-79
2022/05/11 01:14:16;;;;;;;6.90;6.40;;;17.00;99.90;;;;;;4883177;29;20480;-79
2022/05/11 01:16:44;;;;;;;8.07;7.37;;;16.90;99.90;;;;;;4883239;29;20459;-79
2022/05/11 01:19:19;;;;;;;7.40;6.90;;;16.90;99.90;;;;;;4871542;29;20461;-80
2022/05/11 01:21:51;;;;;;;7.27;6.60;;;16.80;99.90;;;;;;4875864;29;20465;-80
2022/05/11 01:24:27;;;;;;;8.33;7.60;;;16.80;99.90;;;;;;4883950;29;20482;-78
2022/05/11 01:26:55;;;;;;;7.97;7.37;;;16.80;99.90;;;;;;4883478;29;20462;-80
2022/05/11 01:29:22;;;;;;;8.33;7.60;;;16.80;99.90;;;;;;4883061;29;20454;-80
2022/05/11 01:31:49;;;;;;;9.43;7.00;;;16.60;99.90;;;;;;4883210;29;20466;-80
2022/05/11 01:34:23;;;;;;;8.07;7.43;;;16.70;99.90;;;;;;4882999;29;20482;-80
2022/05/11 01:36:51;;;;;;;7.37;6.57;;;16.50;99.90;;;;;;4883422;29;20502;-80
2022/05/11 01:39:18;;;;;;;8.30;7.70;;;16.50;99.90;;;;;;4882560;29;20463;-80
2022/05/11 01:41:51;;;;;;;8.83;8.13;;;16.50;99.90;;;;;;4883186;29;20490;-80
2022/05/11 01:44:20;;;;;;;7.90;7.20;;;16.50;99.90;;;;;;4883424;29;20481;-79
2022/05/11 01:46:49;;;;;;;8.90;8.20;;;16.40;99.90;;;;;;4882768;29;20463;-80
2022/05/11 01:49:16;;;;;;;8.07;7.47;;;16.40;99.90;;;;;;4882706;29;20457;-80
2022/05/11 01:51:43;;;;;;;7.33;6.73;;;16.40;99.90;;;;;;4882343;29;20826;-80
2022/05/11 01:56:38;;;;;;;9.00;8.30;;;16.40;99.90;;;;;;4886908;29;20482;-83
2022/05/11 01:59:06;;;;;;;8.40;7.50;;;16.40;99.90;;;;;;4882173;29;20468;-85
2022/05/11 02:01:35;;;;;;;8.53;7.80;;;16.30;99.90;;;;;;4886374;29;20470;-85
2022/05/11 02:04:02;;;;;;;8.60;7.90;;;16.30;99.90;;;;;;4887207;29;20457;-85
2022/05/11 02:09:13;;;;;;;9.20;8.40;;;16.20;99.90;;;;;;4877175;29;20517;-85
2022/05/11 02:11:40;;;;;;;6.97;6.47;;;16.20;99.90;;;;;;4872211;29;20462;-85
2022/05/11 02:14:09;;;;;;;7.97;7.27;;;16.20;99.90;;;;;;4888124;29;20467;-85
2022/05/11 02:16:35;;;;;;;7.83;7.23;;;16.10;99.90;;;;;;4882861;29;20458;-85
2022/05/11 02:19:02;;;;;;;7.60;6.87;;;16.10;99.90;;;;;;4869763;29;20454;-85
2022/05/11 02:21:29;;;;;;;8.87;8.07;;;16.10;99.90;;;;;;4869028;29;20461;-85
2022/05/11 02:23:57;;;;;;;7.33;6.73;;;16.10;99.90;;;;;;4883818;29;20460;-85
2022/05/11 02:26:24;;;;;;;8.37;7.67;;;16.10;99.90;;;;;;4871560;29;20466;-86
2022/05/11 02:28:51;;;;;;;9.50;7.53;;;16.20;99.90;;;;;;4873034;29;20515;-85
2022/05/11 02:31:20;;;;;;;7.70;7.10;;;16.20;99.90;;;;;;4887123;29;20984;-84
2022/05/11 02:33:47;;;;;;;8.40;7.70;;;16.20;99.90;;;;;;4884608;29;20463;-85
2022/05/11 02:36:14;;;;;;;9.07;8.27;;;16.20;99.90;;;;;;4869371;29;20488;-85
2022/05/11 02:38:43;;;;;;;7.23;6.63;;;16.30;99.90;;;;;;4869250;29;20467;-85
2022/05/11 02:41:10;;;;;;;8.47;7.77;;;16.20;99.90;;;;;;4877726;29;20470;-85
2022/05/11 02:43:37;;;;;;;7.43;6.83;;;16.20;99.90;;;;;;4870346;29;20466;-85
2022/05/11 02:46:04;;;;;;;7.20;6.70;;;16.20;99.90;;;;;;4885942;29;20509;-84
2022/05/11 02:48:33;;;;;;;8.77;8.00;;;16.20;99.90;;;;;;4888524;29;20503;-86
2022/05/11 02:51:00;;;;;;;8.20;7.50;;;16.20;99.90;;;;;;4876494;29;20960;-85
2022/05/11 02:53:29;;;;;;;7.97;7.37;;;16.20;99.90;;;;;;4875506;29;20466;-85
2022/05/11 02:55:56;;;;;;;7.90;7.30;;;16.10;99.90;;;;;;4884668;29;20859;-84
2022/05/11 02:58:26;;;;;;;7.33;6.83;;;16.10;99.90;;;;;;4887973;29;20457;-85
2022/05/11 03:00:54;;;;;;;9.03;8.13;;;16.10;99.90;;;;;;4885840;29;20522;-86
2022/05/11 03:03:22;;;;;;;8.17;7.37;;;16.00;99.90;;;;;;4891106;29;20465;-86
2022/05/11 03:05:52;;;;;;;7.90;7.27;;;16.10;99.90;;;;;;4890755;29;20477;-85
2022/05/11 03:08:19;;;;;;;8.70;7.90;;;16.10;99.90;;;;;;4890931;29;20492;-86
2022/05/11 03:10:47;;;;;;;7.73;7.17;;;16.10;99.90;;;;;;4879695;29;20466;-86
2022/05/11 03:13:14;;;;;;;8.07;7.37;;;16.10;99.90;;;;;;4872826;29;20819;-85
2022/05/11 03:15:42;;;;;;;8.63;7.83;;;16.00;99.90;;;;;;4887783;29;20900;-86
2022/05/11 03:18:09;;;;;;;8.10;7.33;;;16.00;99.90;;;;;;4890741;29;20458;-85
2022/05/11 03:20:36;;;;;;;7.50;6.90;;;16.00;99.90;;;;;;4882521;29;20543;-85
2022/05/11 03:23:04;;;;;;;8.57;7.87;;;16.00;99.90;;;;;;4887930;29;20467;-85
2022/05/11 03:25:31;;;;;;;8.20;7.40;;;15.90;99.90;;;;;;4872604;29;20481;-85
2022/05/11 03:27:58;;;;;;;7.63;7.03;;;15.90;99.90;;;;;;4888866;29;20490;-85
2022/05/11 03:30:25;;;;;;;7.33;6.73;;;16.00;99.90;;;;;;4883596;29;20461;-85
2022/05/11 03:35:36;;;;;;;7.50;6.90;;;15.90;99.90;;;;;;4887437;29;20572;-85
2022/05/11 03:38:05;;;;;;;8.23;7.43;;;15.80;99.90;;;;;;4880255;29;20467;-86
2022/05/11 03:40:32;;;;;;;8.47;7.77;;;15.80;99.90;;;;;;4878019;29;20464;-85
2022/05/11 03:42:59;;;;;;;7.47;6.73;;;15.80;99.90;;;;;;4890772;29;20833;-84
2022/05/11 03:45:27;;;;;;;7.67;7.03;;;15.70;99.90;;;;;;4890812;29;20480;-86
2022/05/11 03:47:54;;;;;;;7.63;7.03;;;15.80;99.90;;;;;;4889426;29;21000;-86
2022/05/11 03:50:22;;;;;;;8.03;7.23;;;15.80;99.90;;;;;;4889216;29;20471;-85
2022/05/11 03:52:50;;;;;;;8.20;7.37;;;15.70;99.90;;;;;;4890184;29;20825;-84
2022/05/11 03:55:18;;;;;;;8.00;7.13;;;15.80;99.90;;;;;;4878388;29;20486;-86
2022/05/11 03:57:45;;;;;;;8.50;7.80;;;15.60;99.90;;;;;;4877671;29;20457;-85
2022/05/11 04:00:15;;;;;;;8.90;8.00;;;15.70;99.90;;;;;;4885426;29;20461;-83
2022/05/11 04:02:42;;;;;;;8.17;7.53;;;15.70;99.90;;;;;;4874198;29;20497;-85
2022/05/11 04:05:11;;;;;;;9.47;8.50;;;15.60;99.90;;;;;;4890467;29;20483;-85
2022/05/11 04:07:37;;;;;;;7.43;6.83;;;15.50;99.90;;;;;;4889986;29;20461;-85
2022/05/11 04:10:05;;;;;;;8.80;8.00;;;15.60;99.90;;;;;;4886858;29;20449;-85
2022/05/11 04:12:34;;;;;;;7.60;6.90;;;15.80;99.90;;;;;;4873802;29;20951;-85
2022/05/11 04:15:01;;;;;;;8.17;7.37;;;15.80;99.90;;;;;;4889737;29;20476;-86
2022/05/11 04:17:28;;;;;;;7.50;6.90;;;15.70;99.90;;;;;;4881552;29;20455;-86
2022/05/11 04:19:56;;;;;;;7.80;7.10;;;15.70;99.90;;;;;;4872086;29;20832;-85
2022/05/11 04:22:23;;;;;;;7.50;6.70;;;15.60;99.90;;;;;;4870510;29;20457;-85
2022/05/11 04:24:49;;;;;;;7.67;6.97;;;15.60;99.90;;;;;;4870240;29;20478;-84
2022/05/11 04:27:16;;;;;;;8.07;7.47;;;15.60;99.90;;;;;;4884682;29;20475;-85
2022/05/11 04:29:44;;;;;;;8.03;7.37;;;15.60;99.90;;;;;;4878983;29;20498;-85
2022/05/11 04:32:14;;;;;;;7.63;6.93;;;15.60;99.90;;;;;;4885488;29;20456;-85
2022/05/11 04:34:42;;;;;;;6.90;6.30;;;15.60;99.90;;;;;;4870268;29;20493;-86
2022/05/11 04:37:09;;;;;;;8.60;7.90;;;15.60;99.90;;;;;;4870362;29;20466;-85
2022/05/11 04:39:36;;;;;;;8.60;7.80;;;15.50;99.90;;;;;;4870954;29;20458;-85
2022/05/11 04:42:03;;;;;;;8.20;7.50;;;15.50;99.90;;;;;;4870306;29;20472;-85
2022/05/11 04:44:29;;;;;;;9.30;8.40;;;15.50;99.90;;;;;;4870244;29;20491;-85
2022/05/11 04:46:57;;;;;;;8.73;7.97;;;15.50;99.90;;;;;;4873443;29;20464;-84
2022/05/11 04:49:24;;;;;;;8.33;6.63;;;15.50;99.90;;;;;;4881298;29;20496;-84
2022/05/11 04:52:00;;;;;;;7.70;6.70;;;15.50;99.90;;;;;;4869475;29;20458;-85
2022/05/11 04:54:27;;;;;;;7.27;6.60;;;15.50;99.90;;;;;;4873648;29;20487;-85
2022/05/11 04:56:54;;;;;;;8.63;7.93;;;15.50;99.90;;;;;;4883864;29;20460;-85
2022/05/11 04:59:22;;;;;;;10.00;6.80;;;15.60;99.90;;;;;;4879391;29;20450;-83
2022/05/11 05:01:48;;;;;;;7.60;7.00;;;15.60;99.90;;;;;;4864864;29;20496;-83
2022/05/11 05:04:20;;;;;;;7.40;6.70;;;15.60;99.90;;;;;;4871467;29;20462;-84
2022/05/11 05:06:46;;;;;;;7.40;6.70;;;15.60;99.90;;;;;;4888558;29;20485;-85
2022/05/11 05:09:13;;;;;;;6.63;6.03;;;15.70;99.90;;;;;;4883157;29;20496;-85
2022/05/11 05:11:40;;;;;;;7.70;7.07;;;15.70;99.90;;;;;;4873694;29;20469;-85
2022/05/11 05:14:08;;;;;;;8.00;7.33;;;15.80;99.90;;;;;;4882683;29;21087;-85
2022/05/11 05:16:35;;;;;;;7.47;6.83;;;15.80;99.90;;;;;;4882199;29;20465;-87
2022/05/11 05:19:02;;;;;;;7.17;6.47;;;15.90;99.90;;;;;;4867827;29;20460;-87
2022/05/11 05:21:31;;;;;;;7.47;6.87;;;15.90;99.90;;;;;;4871961;29;20513;-87
2022/05/11 05:23:58;;;;;;;9.00;7.10;;;15.90;99.90;;;;;;4885163;29;20458;-86
2022/05/11 05:26:24;;;;;;;7.97;7.37;;;15.90;99.90;;;;;;4885552;29;20471;-86
2022/05/11 05:31:35;;;;;;;7.37;6.73;;;16.10;99.90;;;;;;4852957;29;21017;-87
2022/05/11 05:34:02;;;;;;;8.30;7.50;;;16.10;99.90;;;;;;4857518;29;20826;-86
2022/05/11 05:36:32;;;;;;;8.33;7.47;;;16.10;99.90;;;;;;4886450;29;20457;-84
2022/05/11 05:38:59;;;;;;;7.77;7.20;;;16.20;99.90;;;;;;4870550;29;20450;-87
2022/05/11 05:41:27;;;;;;;7.57;6.87;;;16.20;99.90;;;;;;4877061;29;20457;-87
2022/05/11 05:43:54;;;;;;;7.57;6.87;;;16.20;99.90;;;;;;4885101;29;20466;-84
2022/05/11 05:46:21;;;;;;;7.80;7.20;;;16.30;99.90;;;;;;4873032;29;20476;-85
2022/05/11 05:48:48;;;;;;;8.97;8.20;;;16.40;99.90;;;;;;4878459;29;20490;-84
2022/05/11 05:51:17;;;;;;;7.80;7.23;;;16.40;99.90;;;;;;4870021;29;20462;-86
2022/05/11 05:53:46;;;;;;;8.37;7.63;;;16.50;99.90;;;;;;4873272;29;20462;-85
2022/05/11 05:56:14;;;;;;;7.33;6.77;;;16.50;99.90;;;;;;4849540;29;1045617;-85
2022/05/11 05:58:43;;;;;;;7.50;6.90;;;16.70;99.90;;;;;;4882864;29;20254;-84
2022/05/11 06:01:09;;;;;;;7.13;6.60;;;16.80;99.90;;;;;;4869984;29;20462;-85
2022/05/11 06:03:37;;;;;;;7.03;6.53;;;16.90;99.90;;;;;;4884654;29;20457;-83
2022/05/11 06:06:04;;;;;;;6.40;5.90;;;17.00;99.90;;;;;;4877064;29;20489;-86
2022/05/11 06:08:31;;;;;;;8.33;7.70;;;17.10;99.90;;;;;;4885930;29;20499;-86
2022/05/11 06:10:59;;;;;;;7.60;6.90;;;17.20;99.90;;;;;;4868171;29;20559;-86
2022/05/11 06:13:27;;;;;;;8.57;7.77;;;17.30;99.90;;;;;;4872563;29;20490;-83
2022/05/11 06:15:56;;;;;;;8.23;7.63;;;17.40;99.90;;;;;;4878678;29;20491;-86
2022/05/11 06:18:24;;;;;;;6.63;6.13;;;17.60;99.90;;;;;;4868581;29;20476;-85
2022/05/11 06:20:52;;;;;;;6.90;6.40;;;17.70;99.90;;;;;;4875854;29;20793;-86
2022/05/11 06:23:19;;;;;;;6.43;5.93;;;17.80;99.90;;;;;;4867521;29;20462;-86
2022/05/11 06:25:49;;;;;;;6.57;6.07;;;17.90;99.90;;;;;;4867446;29;20490;-87
2022/05/11 06:28:18;;;;;;;6.40;6.00;;;17.90;99.90;;;;;;4878543;29;20470;-87
2022/05/11 06:30:46;;;;;;;7.07;6.47;;;18.10;99.90;;;;;;4886228;29;20460;-85
2022/05/11 06:33:16;;;;;;;6.97;6.43;;;18.20;99.90;;;;;;4862620;29;20459;-85
2022/05/11 06:35:43;;;;;;;6.00;5.50;;;18.40;99.90;;;;;;4871229;29;20461;-86
2022/05/11 06:38:10;;;;;;;6.70;6.10;;;18.50;99.90;;;;;;4880927;29;20459;-86
2022/05/11 06:40:38;;;;;;;7.30;6.80;;;18.60;99.90;;;;;;4876926;29;20460;-85
2022/05/11 06:43:05;;;;;;;6.00;5.50;;;18.70;99.90;;;;;;4872603;29;20476;-85
2022/05/11 06:45:34;;;;;;;6.17;5.73;;;18.90;99.90;;;;;;4873597;29;20495;-86
2022/05/11 06:48:01;;;;;;;8.10;6.33;;;18.90;99.90;;;;;;4872155;29;20492;-85
2022/05/11 06:50:28;;;;;;;5.30;4.90;;;19.00;99.90;;;;;;4871770;29;20491;-85
2022/05/11 06:52:59;;;;;;;6.20;5.70;;;19.10;99.90;;;;;;4873203;29;20453;-85
2022/05/11 07:00:56;;;;;;;5.50;5.10;;;19.30;99.30;;;;;;4880267;29;20458;-83
2022/05/11 07:03:23;;;;;;;5.77;5.37;;;19.30;99.10;;;;;;4889312;29;20474;-84
2022/05/11 07:05:53;;;;;;;7.40;5.90;;;19.40;99.20;;;;;;4873058;29;20465;-84
2022/05/11 07:08:20;;;;;;;5.70;5.13;;;19.50;98.90;;;;;;4870133;29;20591;-84
2022/05/11 07:12:17;;;;;;;6.57;6.07;;;19.50;98.60;;;;;;4869791;29;20995;-84
2022/05/11 07:13:52;;;;;;;6.00;5.60;;;19.50;98.40;;;;;;4869816;29;20960;-84
2022/05/11 07:16:21;;;;;;;5.30;4.90;;;19.70;98.70;;;;;;4885578;29;20493;-84
2022/05/11 07:18:50;;;;;;;6.43;5.93;;;19.90;98.40;;;;;;4888143;29;20458;-84
2022/05/11 07:21:17;;;;;;;5.87;5.47;;;19.90;98.30;;;;;;4886794;29;20515;-85
2022/05/11 07:23:44;;;;;;;6.80;5.37;;;20.00;97.80;;;;;;4888340;29;20464;-85
2022/05/11 07:26:13;;;;;;;6.50;6.00;;;20.10;97.40;;;;;;4872052;29;20474;-85
2022/05/11 07:28:40;;;;;;;6.10;5.50;;;20.20;97.10;;;;;;4868875;29;20502;-84
2022/05/11 07:31:08;;;;;;;5.60;5.13;;;20.30;96.80;;;;;;4884461;29;20449;-84
2022/05/11 07:33:36;;;;;;;4.87;4.47;;;20.30;96.90;;;;;;4888483;29;20476;-85
2022/05/11 07:36:03;;;;;;;5.23;4.83;;;20.50;96.90;;;;;;4874492;29;20485;-85
2022/05/11 07:38:30;;;;;;;5.23;4.73;;;20.50;96.50;;;;;;4869862;29;20461;-85
2022/05/11 07:40:57;;;;;;;5.97;5.40;;;20.60;96.50;;;;;;4881645;29;20484;-85
2022/05/11 07:43:24;;;;;;;5.97;5.57;;;20.80;96.10;;;;;;4887862;29;20461;-85
2022/05/11 07:45:50;;;;;;;5.50;5.00;;;21.00;95.90;;;;;;4876950;29;20485;-85
2022/05/11 07:48:20;;;;;;;5.73;5.33;;;21.00;95.80;;;;;;4871736;29;20463;-84
2022/05/11 07:50:48;;;;;;;4.97;4.67;;;21.20;95.30;;;;;;4871489;29;20519;-85
2022/05/11 07:53:15;;;;;;;5.77;5.27;;;21.20;95.00;;;;;;4871307;29;20465;-85
2022/05/11 07:55:42;;;;;;;5.60;5.20;;;21.30;94.80;;;;;;4882865;29;20548;-82
2022/05/11 08:00:55;;;;;;;5.13;4.73;;;21.30;94.70;;;;;;4864428;29;20478;-82
2022/05/11 08:03:22;;;;;;;5.30;5.00;;;21.50;94.50;;;;;;4864006;29;20457;-82
2022/05/11 08:05:50;;;;;;;5.60;5.10;;;21.60;94.30;;;;;;4864490;29;20489;-82
2022/05/11 08:08:17;;;;;;;6.27;4.90;;;21.70;94.40;;;;;;4863995;29;20458;-82
2022/05/11 08:10:46;;;;;;;5.10;4.70;;;21.70;94.20;;;;;;4876479;29;20500;-82
2022/05/11 08:13:13;;;;;;;5.37;4.97;;;21.90;93.50;;;;;;4866121;29;20823;-82
2022/05/11 08:15:43;;;;;;;5.20;4.90;;;22.00;94.00;;;;;;4882703;29;20486;-84
2022/05/11 08:18:11;;;;;;;4.90;4.50;;;22.10;93.00;;;;;;4881945;29;20972;-82
2022/05/11 08:20:41;;;;;;;5.83;5.43;;;22.10;93.00;;;;;;4881775;29;20994;-82
2022/05/11 08:23:09;;;;;;;5.43;5.03;;;22.20;92.60;;;;;;4880793;29;20471;-82
2022/05/11 08:25:38;;;;;;;5.40;5.00;;;22.30;92.50;;;;;;4882591;29;20493;-82
2022/05/11 08:28:10;;;;;;;5.17;4.70;;;22.40;92.90;;;;;;4882365;29;20463;-82
2022/05/11 08:33:23;;;;;;;5.03;4.70;;;22.50;92.20;;;;;;4864211;29;20439;-82
2022/05/11 08:35:56;;;;;;;5.50;5.10;;;22.60;91.90;;;;;;4865768;29;20475;-82
2022/05/11 08:38:28;;;;;;;4.70;4.40;;;22.80;91.70;;;;;;4869929;29;20466;-82
2022/05/11 08:40:59;;;;;;;6.57;4.97;;;22.80;90.70;;;;;;4882193;29;20473;-82
2022/05/11 08:47:26;;;;;;;5.00;4.70;;;22.90;91.20;;;;;;4819281;29;20556;-81
2022/05/11 08:49:55;;;;;;;5.83;5.43;;;23.10;91.20;;;;;;4824542;29;20598;-82
2022/05/11 08:52:32;;;;;;;5.20;4.67;;;23.20;90.30;;;;;;4881488;29;20459;-82
2022/05/11 08:55:09;;;;;;;5.73;5.33;;;23.30;90.50;;;;;;4882199;29;20528;-82
2022/05/11 08:57:37;;;;;;;5.60;5.20;;;23.40;90.00;;;;;;4881947;29;20966;-82
2022/05/11 09:00:08;;;;;;;5.30;4.90;;;23.40;89.00;;;;;;4881462;29;20897;-82
2022/05/11 09:02:47;;;;;;;5.67;5.27;;;23.50;90.00;;;;;;4881541;29;20967;-82
2022/05/11 09:05:56;;;;;;;5.50;5.10;;;23.50;89.10;;;;;;4882571;29;20591;-82
2022/05/11 09:08:23;;;;;;;6.80;6.30;;;23.60;90.00;;;;;;4881749;29;20467;-82
2022/05/11 09:10:51;;;;;;;7.60;6.57;;;23.60;90.40;;;;;;4881226;29;20488;-82
2022/05/11 09:13:20;;;;;;;5.40;5.10;;;23.70;90.70;;;;;;4881202;29;20460;-83
2022/05/11 09:16:05;;;;;;;7.00;6.50;;;23.80;90.70;;;;;;4882164;29;20515;-82
2022/05/11 09:18:40;;;;;;;5.00;4.70;;;23.90;89.70;;;;;;4881423;29;20529;-82
2022/05/11 09:21:24;;;;;;;5.33;5.03;;;24.00;88.80;;;;;;4881041;29;20989;-82
2022/05/11 09:24:02;;;;;;;5.27;4.87;;;23.90;88.20;;;;;;4881860;29;20459;-82
2022/05/11 09:26:36;;;;;;;6.07;5.60;;;23.90;88.10;;;;;;4881565;29;20460;-83
2022/05/11 09:29:16;;;;;;;6.10;5.70;;;24.00;88.50;;;;;;4881459;29;20436;-83
2022/05/11 09:31:45;;;;;;;6.00;5.60;;;24.10;87.60;;;;;;4881038;29;20456;-82
2022/05/11 09:34:15;;;;;;;6.43;5.93;;;24.20;87.40;;;;;;4881215;29;20456;-82
2022/05/11 09:36:52;;;;;;;6.67;6.27;;;24.30;86.80;;;;;;4881527;29;20499;-82
2022/05/11 09:39:19;;;;;;;6.50;5.90;;;24.30;85.90;;;;;;4881181;29;20613;-82
2022/05/11 09:41:49;;;;;;;5.80;5.40;;;24.40;86.90;;;;;;4880761;29;20825;-82
2022/05/11 09:44:21;;;;;;;6.10;5.70;;;24.50;87.30;;;;;;4881200;29;20933;-82
2022/05/11 09:46:48;;;;;;;6.23;5.83;;;24.60;86.90;;;;;;4880975;29;20456;-83
2022/05/11 09:49:27;;;;;;;6.67;6.03;;;24.80;87.00;;;;;;4881294;29;20467;-82
2022/05/11 09:51:56;;;;;;;6.83;6.13;;;24.90;86.00;;;;;;4880977;29;20469;-82
2022/05/11 09:54:29;;;;;;;5.70;5.30;;;25.00;86.00;;;;;;4881098;29;20483;-82
2022/05/11 09:57:00;;;;;;;6.67;6.27;;;25.10;83.60;;;;;;4880838;29;20479;-83
2022/05/11 09:59:30;;;;;;;5.37;4.97;;;25.10;82.70;;;;;;4880983;29;20463;-82
2022/05/11 10:02:22;;;;;;;5.60;5.20;;;25.10;83.00;;;;;;4880788;29;20463;-83
2022/05/11 10:04:55;;;;;;;7.13;6.53;;;25.40;82.60;;;;;;4880535;29;20488;-82
2022/05/11 10:07:24;;;;;;;5.80;5.40;;;25.30;80.10;;;;;;4881073;29;20464;-82
2022/05/11 10:09:55;;;;;;;6.00;5.60;;;25.30;81.60;;;;;;4880671;29;21044;-83
2022/05/11 10:12:27;;;;;;;6.37;5.97;;;25.40;81.80;;;;;;4880388;29;20462;-83
2022/05/11 10:23:25;;;;;;;5.67;5.20;;;26.30;77.10;;;;;;4881069;29;20575;-83
2022/05/11 10:25:58;;;;;;;5.97;5.67;;;26.60;78.20;;;;;;4881112;29;20845;-83
2022/05/11 10:28:36;;;;;;;5.43;4.90;;;26.50;75.20;;;;;;4881262;29;20804;-83
2022/05/11 10:31:13;;;;;;;5.63;5.13;;;26.50;73.80;;;;;;4880702;29;20499;-83
2022/05/11 10:33:50;;;;;;;5.80;5.40;;;26.40;75.00;;;;;;4881160;29;20459;-82
2022/05/11 10:36:29;;;;;;;6.83;6.43;;;26.40;72.90;;;;;;4880574;29;20491;-83
2022/05/11 10:39:19;;;;;;;4.90;4.50;;;26.40;71.30;;;;;;4881548;29;20466;-83
2022/05/11 10:41:52;;;;;;;5.50;5.10;;;26.50;71.70;;;;;;4881020;29;20516;-83
2022/05/11 10:44:44;;;;;;;5.97;5.63;;;26.50;72.80;;;;;;4881158;29;20471;-83
2022/05/11 10:47:27;;;;;;;4.80;4.50;;;26.50;72.00;;;;;;4880490;29;21030;-83
2022/05/11 10:50:09;;;;;;;5.70;5.30;;;26.60;70.80;;;;;;4881269;29;20590;-83
2022/05/11 10:52:53;;;;;;;5.30;5.00;;;26.80;71.00;;;;;;4881024;29;20459;-83
2022/05/11 10:55:25;;;;;;;5.53;5.03;;;27.10;69.80;;;;;;4880847;29;21018;-85
2022/05/11 10:58:06;;;;;;;5.53;5.13;;;27.20;67.70;;;;;;4880694;29;20461;-83
2022/05/11 11:00:42;;;;;;;6.17;5.17;;;27.30;65.80;;;;;;4880812;29;20456;-83
2022/05/11 11:03:35;;;;;;;6.23;5.07;;;27.30;64.30;;;;;;4880950;29;20512;-83
2022/05/11 11:09:16;;;;;;;5.47;5.07;;;28.10;62.90;;;;;;4881047;29;20434;-83
2022/05/11 11:11:49;;;;;;;5.40;5.00;;;28.60;63.50;;;;;;4881040;29;20519;-83
2022/05/11 11:14:19;;;;;;;5.13;4.73;;;28.70;58.80;;;;;;4880915;29;20470;-83
2022/05/11 11:16:47;;;;;;;4.40;4.10;;;28.90;58.90;;;;;;4881407;29;20474;-83
2022/05/11 11:19:15;;;;;;;5.10;4.70;;;29.20;58.80;;;;;;4881995;29;20821;-83
2022/05/11 11:21:43;;;;;;;4.63;4.30;;;29.50;59.50;;;;;;4880684;29;20475;-83
2022/05/11 11:24:13;;;;;;;4.53;4.23;;;29.60;57.60;;;;;;4883564;29;20448;-83
2022/05/11 11:26:48;;;;;;;5.07;4.77;;;29.70;55.30;;;;;;4884728;29;20459;-83
2022/05/11 11:29:19;;;;;;;4.93;4.53;;;29.70;55.20;;;;;;4884879;29;20452;-83
2022/05/11 11:32:20;;;;;;;5.00;4.70;;;30.10;55.50;;;;;;4884110;29;20634;-83
2022/05/11 11:34:49;;;;;;;5.53;4.60;;;30.40;54.10;;;;;;4884566;29;20507;-84
2022/05/11 11:37:46;;;;;;;5.33;5.03;;;30.50;53.70;;;;;;4884383;29;20473;-83
2022/05/11 11:40:24;;;;;;;4.10;3.90;;;30.60;53.20;;;;;;4884056;29;20485;-83
2022/05/11 11:42:51;;;;;;;4.53;4.30;;;30.60;53.00;;;;;;4884470;29;20465;-83
2022/05/11 11:45:55;;;;;;;4.90;4.27;;;30.70;51.20;;;;;;4884626;29;20482;-83
2022/05/11 11:48:26;;;;;;;6.17;4.43;;;30.80;50.10;;;;;;4874602;29;20995;-83
2022/05/11 11:51:04;;;;;;;6.70;4.43;;;30.70;50.50;;;;;;4881016;29;21026;-84
2022/05/11 11:53:37;;;;;;;4.30;4.00;;;30.70;48.60;;;;;;4882017;29;20459;-84
2022/05/11 11:56:39;;;;;;;3.20;3.10;;;30.80;47.70;;;;;;4850038;29;20486;-83
2022/05/11 11:59:08;;;;;;;3.80;3.60;;;30.60;45.90;;;;;;4862059;29;20462;-83
2022/05/11 12:01:38;;;;;;;4.10;3.60;;;30.60;45.10;;;;;;4864636;29;21076;-84
2022/05/11 12:04:15;;;;;;;4.07;3.67;;;30.60;47.00;;;;;;4864471;29;20458;-84
2022/05/11 12:15:14;;;;;;;4.63;4.43;;;30.90;47.50;;;;;;4869352;29;20561;-85
2022/05/11 12:17:42;;;;;;;3.40;3.20;;;31.30;48.10;;;;;;4851756;29;20489;-85
2022/05/11 12:20:14;;;;;;;4.30;4.00;;;31.30;44.00;;;;;;4845902;29;20487;-84
2022/05/11 12:22:45;;;;;;;4.10;3.80;;;31.40;43.40;;;;;;4846413;29;20475;-85
2022/05/11 12:25:20;;;;;;;3.37;3.17;;;31.60;42.90;;;;;;4851951;29;20479;-86
2022/05/11 12:27:48;;;;;;;3.60;3.30;;;31.50;43.10;;;;;;4864046;29;20436;-85
2022/05/11 12:30:21;;;;;;;4.50;4.20;;;31.40;41.50;;;;;;4861237;29;20978;-85
2022/05/11 12:32:58;;;;;;;4.37;4.07;;;31.30;41.40;;;;;;4841253;29;20465;-85
2022/05/11 12:35:31;;;;;;;3.33;3.10;;;31.50;42.60;;;;;;4840917;29;20485;-86
2022/05/11 12:38:02;;;;;;;3.67;3.40;;;31.50;41.80;;;;;;4844885;29;20469;-85
2022/05/11 12:40:32;;;;;;;4.00;3.80;;;31.50;41.60;;;;;;4855779;29;20503;-83
2022/05/11 12:43:00;;;;;;;3.67;3.37;;;31.80;41.90;;;;;;4845175;29;20467;-85
2022/05/11 12:45:34;;;;;;;4.47;3.60;;;32.20;41.70;;;;;;4842192;29;20489;-85
2022/05/11 12:48:01;;;;;;;4.10;3.90;;;32.10;41.00;;;;;;4844450;29;20465;-85
2022/05/11 12:50:33;;;;;;;3.50;3.30;;;32.20;40.00;;;;;;4859093;29;20460;-84
2022/05/11 12:53:24;;;;;;;3.80;3.40;;;32.40;39.80;;;;;;4864535;29;20456;-82
2022/05/11 12:55:54;;;;;;;4.03;3.80;;;32.40;39.70;;;;;;4850912;29;20489;-82
2022/05/11 12:58:22;;;;;;;5.10;3.57;;;32.70;41.40;;;;;;4858259;29;20475;-85
2022/05/11 13:00:56;;;;;;;4.70;3.50;;;33.30;40.50;;;;;;4865928;29;21012;-85
2022/05/11 13:03:26;;;;;;;4.07;3.87;;;33.60;40.50;;;;;;4852372;29;20465;-84
2022/05/11 13:05:59;;;;;;;3.90;3.50;;;33.90;39.90;;;;;;4849817;29;20493;-84
2022/05/11 13:08:28;;;;;;;4.83;3.93;;;33.80;36.80;;;;;;4847712;29;20977;-85
2022/05/11 13:10:56;;;;;;;4.00;3.60;;;32.70;36.70;;;;;;4864472;29;20518;-83
2022/05/11 13:13:30;;;;;;;3.57;3.40;;;32.90;37.00;;;;;;4865328;29;20507;-82
2022/05/11 13:16:05;;;;;;;3.70;3.43;;;32.90;37.80;;;;;;4863869;29;20488;-82
2022/05/11 13:18:34;;;;;;;3.10;2.93;;;32.80;37.70;;;;;;4857875;29;20510;-82
2022/05/11 13:21:08;;;;;;;4.37;4.07;;;32.60;37.10;;;;;;4859573;29;20499;-87
2022/05/11 13:23:42;;;;;;;4.00;3.70;;;32.80;37.60;;;;;;4854886;29;20482;-86
2022/05/11 13:26:10;;;;;;;4.53;4.13;;;32.90;38.00;;;;;;4868800;29;20493;-86
2022/05/11 13:28:41;;;;;;;3.80;3.57;;;33.20;38.60;;;;;;4862935;29;20527;-86
2022/05/11 13:31:27;;;;;;;3.10;2.80;;;33.30;38.80;;;;;;4858355;29;20467;-86
2022/05/11 13:33:54;;;;;;;5.07;3.20;;;33.60;36.30;;;;;;4855700;29;20560;-85
2022/05/11 13:36:26;;;;;;;3.83;3.53;;;33.70;36.00;;;;;;4859265;29;20483;-84
2022/05/11 13:39:02;;;;;;;3.83;3.50;;;33.90;34.90;;;;;;4867478;29;20465;-84
2022/05/11 13:42:05;;;;;;;3.83;3.63;;;34.00;35.80;;;;;;4854529;29;20477;-87
2022/05/11 13:54:56;;;;;;;3.30;3.03;;;34.00;34.00;;;;;;1453847;27;20559;-84
2022/05/11 13:58:18;;;;;;;3.53;3.23;;;34.10;33.70;;;;;;4895962;29;20472;-86
2022/05/11 14:00:46;;;;;;;3.70;3.50;;;34.20;33.10;;;;;;4904457;23;20505;-84
2022/05/11 14:03:33;;;;;;;4.07;2.90;;;33.80;33.10;;;;;;4882009;29;20471;-86